sensor_id;sensor_type;location;lat;lon;timestamp;temperature;humidity
6843;DHT22;3460;52.028;8.916;2023-04-09T00:00:11;2.90;99.90
6843;DHT22;3460;52.028;8.916;2023-04-09T00:02:40;3.00;99.90
6843;DHT22;3460;52.028;8.916;2023-04-09T00:05:07;3.00;99.90
6843;DHT22;3460;52.028;8.916;2023-04-09T00:07:34;2.90;99.90
6843;DHT22;3460;52.028;8.916;2023-04-09T00:10:01;2.90;99.90
6843;DHT22;3460;52.028;8.916;2023-04-09T00:12:27;2.80;99.90
6843;DHT22;3460;52.028;8.916;2023-04-09T00:14:55;2.70;99.90
6843;DHT22;3460;52.028;8.916;2023-04-09T00:17:21;2.70;99.90
6843;DHT22;3460;52.028;8.916;2023-04-09T00:19:50;2.60;99.90
6843;DHT22;3460;52.028;8.916;2023-04-09T00:22:16;2.60;99.90
6843;DHT22;3460;52.028;8.916;2023-04-09T00:24:43;2.50;99.90
6843;DHT22;3460;52.028;8.916;2023-04-09T00:27:10;2.50;99.90
6843;DHT22;3460;52.028;8.916;2023-04-09T00:29:37;2.50;99.90
6843;DHT22;3460;52.028;8.916;2023-04-09T00:32:04;2.50;99.90
6843;DHT22;3460;52.028;8.916;2023-04-09T00:34:31;2.60;99.90
6843;DHT22;3460;52.028;8.916;2023-04-09T00:37:00;2.60;99.90
6843;DHT22;3460;52.028;8.916;2023-04-09T00:39:26;2.60;99.90
6843;DHT22;3460;52.028;8.916;2023-04-09T00:41:55;2.50;99.90
6843;DHT22;3460;52.028;8.916;2023-04-09T00:44:23;2.50;99.90
6843;DHT22;3460;52.028;8.916;2023-04-09T00:46:50;2.50;99.90
6843;DHT22;3460;52.028;8.916;2023-04-09T00:49:17;2.50;99.90
6843;DHT22;3460;52.028;8.916;2023-04-09T00:51:45;2.40;99.90
6843;DHT22;3460;52.028;8.916;2023-04-09T00:54:13;2.40;99.90
6843;DHT22;3460;52.028;8.916;2023-04-09T00:56:41;2.30;99.90
6843;DHT22;3460;52.028;8.916;2023-04-09T00:59:08;2.30;99.90
6843;DHT22;3460;52.028;8.916;2023-04-09T01:01:35;2.30;99.90
6843;DHT22;3460;52.028;8.916;2023-04-09T01:04:02;2.30;99.90
6843;DHT22;3460;52.028;8.916;2023-04-09T01:06:33;2.30;99.90
6843;DHT22;3460;52.028;8.916;2023-04-09T01:09:07;2.30;99.90
6843;DHT22;3460;52.028;8.916;2023-04-09T01:11:37;2.20;99.90
6843;DHT22;3460;52.028;8.916;2023-04-09T01:14:13;2.20;99.90
6843;DHT22;3460;52.028;8.916;2023-04-09T01:16:51;2.10;99.90
6843;DHT22;3460;52.028;8.916;2023-04-09T01:19:28;2.20;99.90
6843;DHT22;3460;52.028;8.916;2023-04-09T01:21:59;2.20;99.90
6843;DHT22;3460;52.028;8.916;2023-04-09T01:24:35;2.30;99.90
6843;DHT22;3460;52.028;8.916;2023-04-09T01:27:08;2.30;99.90
6843;DHT22;3460;52.028;8.916;2023-04-09T01:29:40;2.30;99.90
6843;DHT22;3460;52.028;8.916;2023-04-09T01:32:11;2.30;99.90
6843;DHT22;3460;52.028;8.916;2023-04-09T01:34:40;2.30;99.90
6843;DHT22;3460;52.028;8.916;2023-04-09T01:37:08;2.20;99.90
6843;DHT22;3460;52.028;8.916;2023-04-09T01:39:36;2.20;99.90
6843;DHT22;3460;52.028;8.916;2023-04-09T01:42:04;2.20;99.90
6843;DHT22;3460;52.028;8.916;2023-04-09T01:44:35;2.20;99.90
6843;DHT22;3460;52.028;8.916;2023-04-09T01:47:06;2.10;99.90
6843;DHT22;3460;52.028;8.916;2023-04-09T01:49:34;2.10;99.90
6843;DHT22;3460;52.028;8.916;2023-04-09T01:52:02;2.00;99.90
6843;DHT22;3460;52.028;8.916;2023-04-09T01:54:28;1.90;99.90
6843;DHT22;3460;52.028;8.916;2023-04-09T01:56:56;2.00;99.90
6843;DHT22;3460;52.028;8.916;2023-04-09T01:59:23;2.10;99.90
6843;DHT22;3460;52.028;8.916;2023-04-09T02:01:53;2.10;99.90
6843;DHT22;3460;52.028;8.916;2023-04-09T02:04:25;2.10;99.90
6843;DHT22;3460;52.028;8.916;2023-04-09T02:06:58;2.10;99.90
6843;DHT22;3460;52.028;8.916;2023-04-09T02:09:30;2.00;99.90
6843;DHT22;3460;52.028;8.916;2023-04-09T02:11:58;1.90;99.90
6843;DHT22;3460;52.028;8.916;2023-04-09T02:14:27;1.90;99.90
6843;DHT22;3460;52.028;8.916;2023-04-09T02:16:55;1.90;99.90
6843;DHT22;3460;52.028;8.916;2023-04-09T02:19:23;1.90;99.90
6843;DHT22;3460;52.028;8.916;2023-04-09T02:21:50;1.90;99.90
6843;DHT22;3460;52.028;8.916;2023-04-09T02:24:17;1.80;99.90
6843;DHT22;3460;52.028;8.916;2023-04-09T02:26:43;1.80;99.90
6843;DHT22;3460;52.028;8.916;2023-04-09T02:29:10;1.80;99.90
6843;DHT22;3460;52.028;8.916;2023-04-09T02:31:37;1.70;99.90
6843;DHT22;3460;52.028;8.916;2023-04-09T02:34:04;1.70;99.90
6843;DHT22;3460;52.028;8.916;2023-04-09T02:36:32;1.70;99.90
6843;DHT22;3460;52.028;8.916;2023-04-09T02:38:59;1.60;99.90
6843;DHT22;3460;52.028;8.916;2023-04-09T02:41:26;1.70;99.90
6843;DHT22;3460;52.028;8.916;2023-04-09T02:43:52;1.80;99.90
6843;DHT22;3460;52.028;8.916;2023-04-09T02:46:19;1.80;99.90
6843;DHT22;3460;52.028;8.916;2023-04-09T02:48:46;1.90;99.90
6843;DHT22;3460;52.028;8.916;2023-04-09T02:51:13;1.90;99.90
6843;DHT22;3460;52.028;8.916;2023-04-09T02:53:41;1.90;99.90
6843;DHT22;3460;52.028;8.916;2023-04-09T02:56:10;1.90;99.90
6843;DHT22;3460;52.028;8.916;2023-04-09T02:58:36;2.00;99.90
6843;DHT22;3460;52.028;8.916;2023-04-09T03:01:03;2.00;99.90
6843;DHT22;3460;52.028;8.916;2023-04-09T03:03:30;2.00;99.90
6843;DHT22;3460;52.028;8.916;2023-04-09T03:05:57;2.10;99.90
6843;DHT22;3460;52.028;8.916;2023-04-09T03:08:24;2.20;99.90
6843;DHT22;3460;52.028;8.916;2023-04-09T03:10:52;2.20;99.90
6843;DHT22;3460;52.028;8.916;2023-04-09T03:13:19;2.30;99.90
6843;DHT22;3460;52.028;8.916;2023-04-09T03:15:50;2.30;99.90
6843;DHT22;3460;52.028;8.916;2023-04-09T03:18:17;2.30;99.90
6843;DHT22;3460;52.028;8.916;2023-04-09T03:20:44;2.50;99.90
6843;DHT22;3460;52.028;8.916;2023-04-09T03:23:11;2.50;99.90
6843;DHT22;3460;52.028;8.916;2023-04-09T03:25:38;2.60;99.90
6843;DHT22;3460;52.028;8.916;2023-04-09T03:28:06;2.70;99.90
6843;DHT22;3460;52.028;8.916;2023-04-09T03:30:33;2.70;99.90
6843;DHT22;3460;52.028;8.916;2023-04-09T03:32:59;2.70;99.90
6843;DHT22;3460;52.028;8.916;2023-04-09T03:35:26;2.70;99.90
6843;DHT22;3460;52.028;8.916;2023-04-09T03:37:53;2.70;99.90
6843;DHT22;3460;52.028;8.916;2023-04-09T03:40:20;2.70;99.90
6843;DHT22;3460;52.028;8.916;2023-04-09T03:42:47;2.80;99.90
6843;DHT22;3460;52.028;8.916;2023-04-09T03:45:15;2.80;99.90
6843;DHT22;3460;52.028;8.916;2023-04-09T03:47:42;3.00;99.90
6843;DHT22;3460;52.028;8.916;2023-04-09T03:50:09;3.00;99.90
6843;DHT22;3460;52.028;8.916;2023-04-09T03:52:36;3.10;99.90
6843;DHT22;3460;52.028;8.916;2023-04-09T03:55:03;3.10;99.90
6843;DHT22;3460;52.028;8.916;2023-04-09T03:57:30;3.20;99.90
6843;DHT22;3460;52.028;8.916;2023-04-09T03:59:57;3.20;99.90
6843;DHT22;3460;52.028;8.916;2023-04-09T04:02:25;3.30;99.90
6843;DHT22;3460;52.028;8.916;2023-04-09T04:04:54;3.30;99.90
6843;DHT22;3460;52.028;8.916;2023-04-09T04:07:21;3.30;99.90
6843;DHT22;3460;52.028;8.916;2023-04-09T04:09:48;3.30;99.90
6843;DHT22;3460;52.028;8.916;2023-04-09T04:12:15;3.20;99.90
6843;DHT22;3460;52.028;8.916;2023-04-09T04:14:42;3.20;99.90
6843;DHT22;3460;52.028;8.916;2023-04-09T04:17:09;3.20;99.90
6843;DHT22;3460;52.028;8.916;2023-04-09T04:19:37;3.30;99.90
6843;DHT22;3460;52.028;8.916;2023-04-09T04:22:04;3.30;99.90
6843;DHT22;3460;52.028;8.916;2023-04-09T04:24:31;3.30;99.90
6843;DHT22;3460;52.028;8.916;2023-04-09T04:26:58;3.30;99.90
6843;DHT22;3460;52.028;8.916;2023-04-09T04:29:26;3.30;99.90
6843;DHT22;3460;52.028;8.916;2023-04-09T04:31:53;3.30;99.90
6843;DHT22;3460;52.028;8.916;2023-04-09T04:34:20;3.30;99.90
6843;DHT22;3460;52.028;8.916;2023-04-09T04:36:48;3.30;99.90
6843;DHT22;3460;52.028;8.916;2023-04-09T04:39:15;3.30;99.90
6843;DHT22;3460;52.028;8.916;2023-04-09T04:41:41;3.40;99.90
6843;DHT22;3460;52.028;8.916;2023-04-09T04:44:08;3.40;99.90
6843;DHT22;3460;52.028;8.916;2023-04-09T04:46:35;3.40;99.90
6843;DHT22;3460;52.028;8.916;2023-04-09T04:49:02;3.40;99.90
6843;DHT22;3460;52.028;8.916;2023-04-09T04:51:29;3.50;99.90
6843;DHT22;3460;52.028;8.916;2023-04-09T04:53:58;3.50;99.90
6843;DHT22;3460;52.028;8.916;2023-04-09T04:56:25;3.50;99.90
6843;DHT22;3460;52.028;8.916;2023-04-09T04:58:51;3.50;99.90
6843;DHT22;3460;52.028;8.916;2023-04-09T05:01:18;3.50;99.90
6843;DHT22;3460;52.028;8.916;2023-04-09T05:03:45;3.50;99.90
6843;DHT22;3460;52.028;8.916;2023-04-09T05:06:12;3.50;99.90
6843;DHT22;3460;52.028;8.916;2023-04-09T05:08:39;3.50;99.90
6843;DHT22;3460;52.028;8.916;2023-04-09T05:11:10;3.50;99.90
6843;DHT22;3460;52.028;8.916;2023-04-09T05:13:37;3.50;99.90
6843;DHT22;3460;52.028;8.916;2023-04-09T05:16:04;3.40;99.90
6843;DHT22;3460;52.028;8.916;2023-04-09T05:18:31;3.40;99.90
6843;DHT22;3460;52.028;8.916;2023-04-09T05:20:58;3.40;99.90
6843;DHT22;3460;52.028;8.916;2023-04-09T05:23:24;3.50;99.90
6843;DHT22;3460;52.028;8.916;2023-04-09T05:25:51;3.50;99.90
6843;DHT22;3460;52.028;8.916;2023-04-09T05:28:20;3.50;99.90
6843;DHT22;3460;52.028;8.916;2023-04-09T05:30:47;3.50;99.90
6843;DHT22;3460;52.028;8.916;2023-04-09T05:33:14;3.60;99.90
6843;DHT22;3460;52.028;8.916;2023-04-09T05:35:40;3.60;99.90
6843;DHT22;3460;52.028;8.916;2023-04-09T05:38:07;3.60;99.90
6843;DHT22;3460;52.028;8.916;2023-04-09T05:40:34;3.60;99.90
6843;DHT22;3460;52.028;8.916;2023-04-09T05:43:01;3.70;99.90
6843;DHT22;3460;52.028;8.916;2023-04-09T05:45:29;3.70;99.90
6843;DHT22;3460;52.028;8.916;2023-04-09T05:47:56;3.80;99.90
6843;DHT22;3460;52.028;8.916;2023-04-09T05:50:23;3.80;99.90
6843;DHT22;3460;52.028;8.916;2023-04-09T05:52:50;3.80;99.90
6843;DHT22;3460;52.028;8.916;2023-04-09T05:55:17;3.80;99.90
6843;DHT22;3460;52.028;8.916;2023-04-09T05:57:43;3.80;99.90
6843;DHT22;3460;52.028;8.916;2023-04-09T06:00:11;3.70;99.90
6843;DHT22;3460;52.028;8.916;2023-04-09T06:02:40;3.80;99.90
6843;DHT22;3460;52.028;8.916;2023-04-09T06:05:08;3.70;99.90
6843;DHT22;3460;52.028;8.916;2023-04-09T06:07:35;3.70;99.90
6843;DHT22;3460;52.028;8.916;2023-04-09T06:10:02;3.70;99.90
6843;DHT22;3460;52.028;8.916;2023-04-09T06:12:29;3.70;99.90
6843;DHT22;3460;52.028;8.916;2023-04-09T06:14:55;3.70;99.90
6843;DHT22;3460;52.028;8.916;2023-04-09T06:17:23;3.70;99.90
6843;DHT22;3460;52.028;8.916;2023-04-09T06:19:51;3.70;99.90
6843;DHT22;3460;52.028;8.916;2023-04-09T06:22:18;3.70;99.90
6843;DHT22;3460;52.028;8.916;2023-04-09T06:24:45;3.70;99.90
6843;DHT22;3460;52.028;8.916;2023-04-09T06:27:12;3.70;99.90
6843;DHT22;3460;52.028;8.916;2023-04-09T06:29:39;3.70;99.90
6843;DHT22;3460;52.028;8.916;2023-04-09T06:32:05;3.70;99.90
6843;DHT22;3460;52.028;8.916;2023-04-09T06:34:32;3.80;99.90
6843;DHT22;3460;52.028;8.916;2023-04-09T06:37:01;3.80;99.90
6843;DHT22;3460;52.028;8.916;2023-04-09T06:39:28;3.90;99.90
6843;DHT22;3460;52.028;8.916;2023-04-09T06:41:55;3.90;99.90
6843;DHT22;3460;52.028;8.916;2023-04-09T06:44:22;4.00;99.90
6843;DHT22;3460;52.028;8.916;2023-04-09T06:46:49;4.00;99.90
6843;DHT22;3460;52.028;8.916;2023-04-09T06:49:16;4.10;99.90
6843;DHT22;3460;52.028;8.916;2023-04-09T06:51:43;4.10;99.90
6843;DHT22;3460;52.028;8.916;2023-04-09T06:54:11;4.20;99.90
6843;DHT22;3460;52.028;8.916;2023-04-09T06:56:38;4.30;99.90
6843;DHT22;3460;52.028;8.916;2023-04-09T06:59:05;4.30;99.90
6843;DHT22;3460;52.028;8.916;2023-04-09T07:01:32;4.30;99.90
6843;DHT22;3460;52.028;8.916;2023-04-09T07:04:00;4.30;99.90
6843;DHT22;3460;52.028;8.916;2023-04-09T07:06:26;4.40;99.90
6843;DHT22;3460;52.028;8.916;2023-04-09T07:08:53;4.50;99.90
6843;DHT22;3460;52.028;8.916;2023-04-09T07:11:22;4.40;99.90
6843;DHT22;3460;52.028;8.916;2023-04-09T07:13:49;4.30;99.90
6843;DHT22;3460;52.028;8.916;2023-04-09T07:16:16;4.40;99.90
6843;DHT22;3460;52.028;8.916;2023-04-09T07:18:42;4.40;99.90
6843;DHT22;3460;52.028;8.916;2023-04-09T07:21:09;4.40;99.90
6843;DHT22;3460;52.028;8.916;2023-04-09T07:23:36;4.50;99.90
6843;DHT22;3460;52.028;8.916;2023-04-09T07:26:03;4.50;99.90
6843;DHT22;3460;52.028;8.916;2023-04-09T07:28:32;4.50;99.90
6843;DHT22;3460;52.028;8.916;2023-04-09T07:31:00;4.50;99.90
6843;DHT22;3460;52.028;8.916;2023-04-09T07:33:27;4.70;99.90
6843;DHT22;3460;52.028;8.916;2023-04-09T07:35:54;4.70;99.90
6843;DHT22;3460;52.028;8.916;2023-04-09T07:38:21;4.80;99.90
6843;DHT22;3460;52.028;8.916;2023-04-09T07:40:47;5.00;99.90
6843;DHT22;3460;52.028;8.916;2023-04-09T07:43:14;5.20;99.90
6843;DHT22;3460;52.028;8.916;2023-04-09T07:45:42;5.40;99.90
6843;DHT22;3460;52.028;8.916;2023-04-09T07:48:10;5.60;99.90
6843;DHT22;3460;52.028;8.916;2023-04-09T07:50:37;5.70;99.90
6843;DHT22;3460;52.028;8.916;2023-04-09T07:53:04;5.80;99.90
6843;DHT22;3460;52.028;8.916;2023-04-09T07:55:30;6.00;99.90
6843;DHT22;3460;52.028;8.916;2023-04-09T07:57:57;6.20;99.90
6843;DHT22;3460;52.028;8.916;2023-04-09T08:00:24;6.30;99.90
6843;DHT22;3460;52.028;8.916;2023-04-09T08:02:52;6.70;99.90
6843;DHT22;3460;52.028;8.916;2023-04-09T08:05:19;6.80;99.90
6843;DHT22;3460;52.028;8.916;2023-04-09T08:07:46;7.10;99.90
6843;DHT22;3460;52.028;8.916;2023-04-09T08:10:13;7.20;99.90
6843;DHT22;3460;52.028;8.916;2023-04-09T08:12:40;7.40;99.90
6843;DHT22;3460;52.028;8.916;2023-04-09T08:15:08;7.70;99.90
6843;DHT22;3460;52.028;8.916;2023-04-09T08:17:35;8.00;99.90
6843;DHT22;3460;52.028;8.916;2023-04-09T08:20:04;8.30;99.90
6843;DHT22;3460;52.028;8.916;2023-04-09T08:22:31;8.30;99.90
6843;DHT22;3460;52.028;8.916;2023-04-09T08:24:59;8.50;99.90
6843;DHT22;3460;52.028;8.916;2023-04-09T08:27:25;8.60;99.90
6843;DHT22;3460;52.028;8.916;2023-04-09T08:29:52;8.60;99.90
6843;DHT22;3460;52.028;8.916;2023-04-09T08:32:19;8.80;99.90
6843;DHT22;3460;52.028;8.916;2023-04-09T08:34:46;8.90;99.90
6843;DHT22;3460;52.028;8.916;2023-04-09T08:37:14;8.70;99.90
6843;DHT22;3460;52.028;8.916;2023-04-09T08:39:42;8.70;99.90
6843;DHT22;3460;52.028;8.916;2023-04-09T08:42:09;8.90;99.90
6843;DHT22;3460;52.028;8.916;2023-04-09T08:44:37;9.20;99.90
6843;DHT22;3460;52.028;8.916;2023-04-09T08:47:07;9.50;99.90
6843;DHT22;3460;52.028;8.916;2023-04-09T08:49:36;9.60;99.90
6843;DHT22;3460;52.028;8.916;2023-04-09T08:52:04;9.70;99.90
6843;DHT22;3460;52.028;8.916;2023-04-09T08:54:32;9.70;99.90
6843;DHT22;3460;52.028;8.916;2023-04-09T08:57:03;9.60;99.90
6843;DHT22;3460;52.028;8.916;2023-04-09T08:59:30;9.70;99.90
6843;DHT22;3460;52.028;8.916;2023-04-09T09:02:07;9.80;99.90
6843;DHT22;3460;52.028;8.916;2023-04-09T09:04:43;10.10;99.90
6843;DHT22;3460;52.028;8.916;2023-04-09T09:07:11;10.40;99.90
6843;DHT22;3460;52.028;8.916;2023-04-09T09:09:51;10.40;99.90
6843;DHT22;3460;52.028;8.916;2023-04-09T09:12:35;10.50;99.90
6843;DHT22;3460;52.028;8.916;2023-04-09T09:15:03;10.60;99.90
6843;DHT22;3460;52.028;8.916;2023-04-09T09:17:30;10.80;99.90
6843;DHT22;3460;52.028;8.916;2023-04-09T09:19:57;10.80;99.90
6843;DHT22;3460;52.028;8.916;2023-04-09T09:22:24;10.80;99.90
6843;DHT22;3460;52.028;8.916;2023-04-09T09:24:52;10.90;99.90
6843;DHT22;3460;52.028;8.916;2023-04-09T09:27:33;10.80;99.90
6843;DHT22;3460;52.028;8.916;2023-04-09T09:30:01;11.00;99.90
6843;DHT22;3460;52.028;8.916;2023-04-09T09:32:30;11.30;99.90
6843;DHT22;3460;52.028;8.916;2023-04-09T09:34:59;11.40;99.90
6843;DHT22;3460;52.028;8.916;2023-04-09T09:37:27;11.60;99.90
6843;DHT22;3460;52.028;8.916;2023-04-09T09:39:55;11.70;99.90
6843;DHT22;3460;52.028;8.916;2023-04-09T09:42:23;11.60;99.90
6843;DHT22;3460;52.028;8.916;2023-04-09T09:44:50;11.80;99.90
6843;DHT22;3460;52.028;8.916;2023-04-09T09:47:18;11.70;99.90
6843;DHT22;3460;52.028;8.916;2023-04-09T09:49:47;11.80;99.90
6843;DHT22;3460;52.028;8.916;2023-04-09T09:52:15;11.80;99.90
6843;DHT22;3460;52.028;8.916;2023-04-09T09:54:46;11.70;99.90
6843;DHT22;3460;52.028;8.916;2023-04-09T09:57:17;11.70;99.90
6843;DHT22;3460;52.028;8.916;2023-04-09T09:59:49;11.80;99.90
6843;DHT22;3460;52.028;8.916;2023-04-09T10:02:18;11.90;99.90
6843;DHT22;3460;52.028;8.916;2023-04-09T10:04:48;12.10;99.90
6843;DHT22;3460;52.028;8.916;2023-04-09T10:07:15;12.20;99.90
6843;DHT22;3460;52.028;8.916;2023-04-09T10:09:46;12.20;99.90
6843;DHT22;3460;52.028;8.916;2023-04-09T10:12:16;12.40;99.90
6843;DHT22;3460;52.028;8.916;2023-04-09T10:14:44;12.60;99.90
6843;DHT22;3460;52.028;8.916;2023-04-09T10:17:11;12.70;99.90
6843;DHT22;3460;52.028;8.916;2023-04-09T10:19:45;12.80;99.90
6843;DHT22;3460;52.028;8.916;2023-04-09T10:22:17;13.00;99.90
6843;DHT22;3460;52.028;8.916;2023-04-09T10:24:45;12.90;99.90
6843;DHT22;3460;52.028;8.916;2023-04-09T10:27:13;13.00;99.90
6843;DHT22;3460;52.028;8.916;2023-04-09T10:29:43;13.00;99.90
6843;DHT22;3460;52.028;8.916;2023-04-09T10:32:11;13.10;99.90
6843;DHT22;3460;52.028;8.916;2023-04-09T10:34:39;12.50;99.90
6843;DHT22;3460;52.028;8.916;2023-04-09T10:37:07;12.00;99.90
6843;DHT22;3460;52.028;8.916;2023-04-09T10:39:38;11.70;99.90
6843;DHT22;3460;52.028;8.916;2023-04-09T10:42:10;11.70;99.90
6843;DHT22;3460;52.028;8.916;2023-04-09T10:44:39;11.70;99.90
6843;DHT22;3460;52.028;8.916;2023-04-09T10:47:09;11.90;99.90
6843;DHT22;3460;52.028;8.916;2023-04-09T10:49:37;12.20;99.90
6843;DHT22;3460;52.028;8.916;2023-04-09T10:52:05;12.20;99.90
6843;DHT22;3460;52.028;8.916;2023-04-09T10:54:42;12.30;99.90
6843;DHT22;3460;52.028;8.916;2023-04-09T10:57:12;12.10;99.90
6843;DHT22;3460;52.028;8.916;2023-04-09T10:59:40;12.10;99.90
6843;DHT22;3460;52.028;8.916;2023-04-09T11:05:03;12.00;99.90
6843;DHT22;3460;52.028;8.916;2023-04-09T11:07:34;12.00;99.90
6843;DHT22;3460;52.028;8.916;2023-04-09T11:10:03;11.80;99.90
6843;DHT22;3460;52.028;8.916;2023-04-09T11:12:30;11.90;99.90
6843;DHT22;3460;52.028;8.916;2023-04-09T11:14:57;11.90;99.90
6843;DHT22;3460;52.028;8.916;2023-04-09T11:17:25;11.90;99.90
6843;DHT22;3460;52.028;8.916;2023-04-09T11:19:52;11.90;99.90
6843;DHT22;3460;52.028;8.916;2023-04-09T11:22:20;11.90;99.90
6843;DHT22;3460;52.028;8.916;2023-04-09T11:24:47;11.90;99.90
6843;DHT22;3460;52.028;8.916;2023-04-09T11:27:15;11.80;99.90
6843;DHT22;3460;52.028;8.916;2023-04-09T11:29:44;11.80;99.90
6843;DHT22;3460;52.028;8.916;2023-04-09T11:32:11;11.80;99.90
6843;DHT22;3460;52.028;8.916;2023-04-09T11:34:40;11.90;99.90
6843;DHT22;3460;52.028;8.916;2023-04-09T11:37:06;11.90;99.90
6843;DHT22;3460;52.028;8.916;2023-04-09T11:39:43;12.00;99.90
6843;DHT22;3460;52.028;8.916;2023-04-09T11:42:12;11.90;99.90
6843;DHT22;3460;52.028;8.916;2023-04-09T11:44:39;12.00;99.90
6843;DHT22;3460;52.028;8.916;2023-04-09T11:47:07;12.00;99.90
6843;DHT22;3460;52.028;8.916;2023-04-09T11:49:34;12.00;99.90
6843;DHT22;3460;52.028;8.916;2023-04-09T11:52:03;12.10;99.90
6843;DHT22;3460;52.028;8.916;2023-04-09T11:54:30;12.10;99.90
6843;DHT22;3460;52.028;8.916;2023-04-09T11:56:58;12.10;99.90
6843;DHT22;3460;52.028;8.916;2023-04-09T11:59:25;11.90;99.90
6843;DHT22;3460;52.028;8.916;2023-04-09T12:01:51;11.90;99.90
6843;DHT22;3460;52.028;8.916;2023-04-09T12:04:19;11.90;99.90
6843;DHT22;3460;52.028;8.916;2023-04-09T12:06:47;11.90;99.90
6843;DHT22;3460;52.028;8.916;2023-04-09T12:09:15;12.00;99.90
6843;DHT22;3460;52.028;8.916;2023-04-09T12:11:43;12.00;99.90
6843;DHT22;3460;52.028;8.916;2023-04-09T12:14:11;12.10;99.90
6843;DHT22;3460;52.028;8.916;2023-04-09T12:16:39;12.00;99.90
6843;DHT22;3460;52.028;8.916;2023-04-09T12:19:09;11.80;99.90
6843;DHT22;3460;52.028;8.916;2023-04-09T12:21:46;11.70;99.90
6843;DHT22;3460;52.028;8.916;2023-04-09T12:24:16;11.60;99.90
6843;DHT22;3460;52.028;8.916;2023-04-09T12:26:43;11.60;99.90
6843;DHT22;3460;52.028;8.916;2023-04-09T12:29:10;11.60;99.90
6843;DHT22;3460;52.028;8.916;2023-04-09T12:31:37;11.60;99.90
6843;DHT22;3460;52.028;8.916;2023-04-09T12:34:04;11.50;99.90
6843;DHT22;3460;52.028;8.916;2023-04-09T12:36:31;11.30;99.90
6843;DHT22;3460;52.028;8.916;2023-04-09T12:38:58;11.30;99.90
6843;DHT22;3460;52.028;8.916;2023-04-09T12:41:26;11.30;99.90
6843;DHT22;3460;52.028;8.916;2023-04-09T12:43:53;11.30;99.90
6843;DHT22;3460;52.028;8.916;2023-04-09T12:46:20;11.30;99.90
6843;DHT22;3460;52.028;8.916;2023-04-09T12:48:47;11.30;99.90
6843;DHT22;3460;52.028;8.916;2023-04-09T12:51:14;11.20;99.90
6843;DHT22;3460;52.028;8.916;2023-04-09T12:53:41;11.30;99.90
6843;DHT22;3460;52.028;8.916;2023-04-09T12:56:08;11.30;99.90
6843;DHT22;3460;52.028;8.916;2023-04-09T12:58:36;11.50;99.90
6843;DHT22;3460;52.028;8.916;2023-04-09T13:01:03;11.50;99.90
6843;DHT22;3460;52.028;8.916;2023-04-09T13:03:30;11.60;99.90
6843;DHT22;3460;52.028;8.916;2023-04-09T13:05:57;11.50;99.90
6843;DHT22;3460;52.028;8.916;2023-04-09T13:08:24;11.50;99.90
6843;DHT22;3460;52.028;8.916;2023-04-09T13:10:51;11.50;99.90
6843;DHT22;3460;52.028;8.916;2023-04-09T13:13:18;11.30;99.90
6843;DHT22;3460;52.028;8.916;2023-04-09T13:15:47;11.30;99.90
6843;DHT22;3460;52.028;8.916;2023-04-09T13:18:14;11.40;99.90
6843;DHT22;3460;52.028;8.916;2023-04-09T13:20:40;11.40;99.90
6843;DHT22;3460;52.028;8.916;2023-04-09T13:23:07;11.50;99.90
6843;DHT22;3460;52.028;8.916;2023-04-09T13:25:34;11.60;99.90
6843;DHT22;3460;52.028;8.916;2023-04-09T13:28:01;11.50;99.90
6843;DHT22;3460;52.028;8.916;2023-04-09T13:30:27;11.50;99.90
6843;DHT22;3460;52.028;8.916;2023-04-09T13:32:56;11.40;99.90
6843;DHT22;3460;52.028;8.916;2023-04-09T13:35:22;11.50;99.90
6843;DHT22;3460;52.028;8.916;2023-04-09T13:37:49;11.60;99.90
6843;DHT22;3460;52.028;8.916;2023-04-09T13:40:16;11.70;99.90
6843;DHT22;3460;52.028;8.916;2023-04-09T13:42:43;11.80;99.90
6843;DHT22;3460;52.028;8.916;2023-04-09T13:45:10;12.00;99.90
6843;DHT22;3460;52.028;8.916;2023-04-09T13:47:37;12.10;99.90
6843;DHT22;3460;52.028;8.916;2023-04-09T13:50:06;12.10;99.90
6843;DHT22;3460;52.028;8.916;2023-04-09T13:52:34;12.20;99.90
6843;DHT22;3460;52.028;8.916;2023-04-09T13:55:01;12.10;99.90
6843;DHT22;3460;52.028;8.916;2023-04-09T13:57:29;12.10;99.90
6843;DHT22;3460;52.028;8.916;2023-04-09T13:59:56;12.00;99.90
6843;DHT22;3460;52.028;8.916;2023-04-09T14:02:26;12.10;99.90
6843;DHT22;3460;52.028;8.916;2023-04-09T14:04:53;11.90;99.90
6843;DHT22;3460;52.028;8.916;2023-04-09T14:07:22;11.90;99.90
6843;DHT22;3460;52.028;8.916;2023-04-09T14:09:49;12.00;99.90
6843;DHT22;3460;52.028;8.916;2023-04-09T14:12:17;12.10;99.90
6843;DHT22;3460;52.028;8.916;2023-04-09T14:14:44;12.10;99.90
6843;DHT22;3460;52.028;8.916;2023-04-09T14:17:10;12.20;99.90
6843;DHT22;3460;52.028;8.916;2023-04-09T14:19:37;12.30;99.90
6843;DHT22;3460;52.028;8.916;2023-04-09T14:22:04;12.40;99.90
6843;DHT22;3460;52.028;8.916;2023-04-09T14:24:34;12.40;99.90
6843;DHT22;3460;52.028;8.916;2023-04-09T14:27:04;12.40;99.90
6843;DHT22;3460;52.028;8.916;2023-04-09T14:29:31;12.30;99.90
6843;DHT22;3460;52.028;8.916;2023-04-09T14:31:58;12.20;99.90
6843;DHT22;3460;52.028;8.916;2023-04-09T14:34:25;12.30;99.90
6843;DHT22;3460;52.028;8.916;2023-04-09T14:36:52;12.30;99.90
6843;DHT22;3460;52.028;8.916;2023-04-09T14:39:19;12.40;99.90
6843;DHT22;3460;52.028;8.916;2023-04-09T14:41:47;12.40;99.90
6843;DHT22;3460;52.028;8.916;2023-04-09T14:44:14;12.40;99.90
6843;DHT22;3460;52.028;8.916;2023-04-09T14:46:42;12.40;99.90
6843;DHT22;3460;52.028;8.916;2023-04-09T14:49:09;12.40;99.90
6843;DHT22;3460;52.028;8.916;2023-04-09T14:51:35;12.50;99.90
6843;DHT22;3460;52.028;8.916;2023-04-09T14:54:02;12.50;99.90
6843;DHT22;3460;52.028;8.916;2023-04-09T14:56:29;12.60;99.90
6843;DHT22;3460;52.028;8.916;2023-04-09T14:58:57;12.50;99.90
6843;DHT22;3460;52.028;8.916;2023-04-09T15:01:25;12.50;99.90
6843;DHT22;3460;52.028;8.916;2023-04-09T15:03:52;12.50;99.90
6843;DHT22;3460;52.028;8.916;2023-04-09T15:06:19;12.60;99.90
6843;DHT22;3460;52.028;8.916;2023-04-09T15:08:46;12.50;99.90
6843;DHT22;3460;52.028;8.916;2023-04-09T15:11:14;12.50;99.90
6843;DHT22;3460;52.028;8.916;2023-04-09T15:13:41;12.50;99.90
6843;DHT22;3460;52.028;8.916;2023-04-09T15:16:10;12.60;99.90
6843;DHT22;3460;52.028;8.916;2023-04-09T15:18:36;12.50;99.90
6843;DHT22;3460;52.028;8.916;2023-04-09T15:21:04;12.50;99.90
6843;DHT22;3460;52.028;8.916;2023-04-09T15:23:31;12.60;99.90
6843;DHT22;3460;52.028;8.916;2023-04-09T15:25:59;12.80;99.90
6843;DHT22;3460;52.028;8.916;2023-04-09T15:28:26;12.80;99.90
6843;DHT22;3460;52.028;8.916;2023-04-09T15:30:54;12.60;99.90
6843;DHT22;3460;52.028;8.916;2023-04-09T15:33:22;12.50;99.90
6843;DHT22;3460;52.028;8.916;2023-04-09T15:35:49;12.40;99.90
6843;DHT22;3460;52.028;8.916;2023-04-09T15:38:15;12.40;99.90
6843;DHT22;3460;52.028;8.916;2023-04-09T15:40:45;12.40;99.90
6843;DHT22;3460;52.028;8.916;2023-04-09T15:43:12;12.40;99.90
6843;DHT22;3460;52.028;8.916;2023-04-09T15:45:39;12.50;99.90
6843;DHT22;3460;52.028;8.916;2023-04-09T15:48:06;12.50;99.90
6843;DHT22;3460;52.028;8.916;2023-04-09T15:50:34;12.50;99.90
6843;DHT22;3460;52.028;8.916;2023-04-09T15:53:01;12.40;99.90
6843;DHT22;3460;52.028;8.916;2023-04-09T15:55:28;12.30;99.90
6843;DHT22;3460;52.028;8.916;2023-04-09T15:57:55;12.40;99.90
6843;DHT22;3460;52.028;8.916;2023-04-09T16:00:22;12.30;99.90
6843;DHT22;3460;52.028;8.916;2023-04-09T16:02:49;12.30;99.90
6843;DHT22;3460;52.028;8.916;2023-04-09T16:05:17;12.30;99.90
6843;DHT22;3460;52.028;8.916;2023-04-09T16:07:45;12.30;99.90
6843;DHT22;3460;52.028;8.916;2023-04-09T16:10:15;12.30;99.90
6843;DHT22;3460;52.028;8.916;2023-04-09T16:12:42;12.20;99.90
6843;DHT22;3460;52.028;8.916;2023-04-09T16:15:09;12.30;99.90